Flight Track Log - Related Links

Times and Time Zones

All times are in EDT time to prevent confusion due to time zone crossing. See the EGF3062 flight status page for this flight to view local times or setup timezone preferences in your user account.

Time Position Orientation Groundspeed Altitude Reporting Facility
EDT Latitude Longitude Course Direction KTS MPH feet Rate Location/Type
Wed 07:04:15 PM 33.9395 -118.3717 238° Southwest  Level FlightAware Approximate
Wed 07:05:15 PM 33.9333 -118.5174 173° South  Level FlightAware Approximate
Wed 07:06:30 PM 33.8681 -118.5078 184° South 220 253 5,000  Level Los Angeles Center
Wed 07:07:30 PM 33.7928 -118.5133 183° South 237 273 7,800 2,750 Climbing Los Angeles Center
Wed 07:08:30 PM 33.7197 -118.5186 119° Southeast 255 293 10,500 2,100 Climbing Los Angeles Center
Wed 07:09:30 PM 33.6856 -118.4453 91° East 211 243 12,000 1,500 Climbing Los Angeles Center
Wed 07:10:30 PM 33.6836 -118.3381 90° East 254 292 13,500 1,500 Climbing Los Angeles Center
Wed 07:11:30 PM 33.6833 -118.2231 91° East 290 334 15,000 1,650 Climbing Los Angeles Center
Wed 07:12:30 PM 33.6811 -118.1083 90° East 326 375 16,800 2,150 Climbing Los Angeles Center
Wed 07:13:30 PM 33.6808 -117.9958 92° East 335 386 19,300 1,900 Climbing Los Angeles Center
Wed 07:14:30 PM 33.6783 -117.8861 91° East 335 386 20,600 1,150 Climbing Los Angeles Center
Wed 07:15:30 PM 33.6758 -117.7611 91° East 347 399 21,600 1,050 Climbing Los Angeles Center
Wed 07:16:30 PM 33.6733 -117.6289 91° East 372 428 22,700 950 Climbing Los Angeles Center
Wed 07:17:30 PM 33.6708 -117.5089 91° East 387 445 23,500 950 Climbing Los Angeles Center
Wed 07:18:30 PM 33.6681 -117.3717 91° East 401 461 24,600 1,050 Climbing Los Angeles Center
Wed 07:19:30 PM 33.6653 -117.2269 93° East 414 476 25,600 1,000 Climbing Los Angeles Center
Wed 07:20:30 PM 33.6581 -117.0844 91° East 419 482 26,600 700 Climbing Los Angeles Center
Wed 07:21:30 PM 33.6550 -116.9397 92° East 424 488 27,000 200 Climbing Los Angeles Center
Wed 07:22:30 PM 33.6497 -116.7875 92° East 437 503 27,000  Level Los Angeles Center
Wed 07:23:30 PM 33.6461 -116.6328 92° East 457 526 27,000 400 Level Los Angeles Center
Wed 07:24:30 PM 33.6406 -116.4756 92° East 464 534 27,800 1,350 Climbing Los Angeles Center
Wed 07:25:30 PM 33.6367 -116.3333 93° East 452 520 29,700 1,500 Climbing Los Angeles Center
Wed 07:26:30 PM 33.6306 -116.1911 91° East 437 503 30,800 1,050 Climbing Los Angeles Center
Wed 07:27:30 PM 33.6286 -116.0464 92° East 429 494 31,800 1,050 Climbing Los Angeles Center
Wed 07:28:30 PM 33.6242 -115.8967 92° East 429 494 32,900 550 Climbing Los Angeles Center
Wed 07:29:30 PM 33.6197 -115.7469 91° East 443 510 32,900 50 Level Los Angeles Center
Wed 07:30:30 PM 33.6169 -115.5975 91° East 448 516 33,000 50 Climbing Los Angeles Center
Wed 07:31:30 PM 33.6142 -115.4553 91° East 436 502 33,000  Level Los Angeles Center
Wed 07:32:30 PM 33.6111 -115.3106 91° East 436 502 33,000  Level Los Angeles Center
Wed 07:33:30 PM 33.6081 -115.1633 92° East 436 502 33,000  Level Los Angeles Center
Wed 07:34:30 PM 33.6028 -115.0189 92° East 436 502 33,000  Level Los Angeles Center
Wed 07:35:30 PM 33.5992 -114.8717 95° East 441 507 33,000  Level Los Angeles Center
Wed 07:36:30 PM 33.5892 -114.7247 103° East 441 507 33,000 -862 Level Los Angeles Center
Wed 07:38:17 PM 33.5411 -114.4708 103° East 458 527 30,600 -1,940 Descending Albuquerque Center
Wed 07:39:17 PM 33.5122 -114.3264 105° East 458 527 27,600 -2,750 Descending Albuquerque Center
Wed 07:40:17 PM 33.4822 -114.1919 103° East 444 511 25,100 -1,350 Descending Albuquerque Center
Wed 07:41:17 PM 33.4567 -114.0556 103° East 426 490 24,900 -550 Descending Albuquerque Center
Wed 07:42:17 PM 33.4308 -113.9167 104° East 426 490 24,000 -1,200 Descending Albuquerque Center
Wed 07:43:17 PM 33.4028 -113.7828 104° East 426 490 22,500 -1,700 Descending Albuquerque Center
Wed 07:44:17 PM 33.3744 -113.6489 104° East 421 484 20,600 -1,950 Descending Albuquerque Center
Wed 07:45:17 PM 33.3494 -113.5275 104° East 400 460 18,600 -2,000 Descending Albuquerque Center
Wed 07:46:17 PM 33.3244 -113.4064 102° East 382 440 16,600 -1,600 Descending Albuquerque Center
Wed 07:47:17 PM 33.3031 -113.2883 105° East 377 434 15,400 -800 Descending Albuquerque Center
Wed 07:48:17 PM 33.2756 -113.1697 91° East 365 420 15,000 -250 Descending Albuquerque Center
Wed 07:49:17 PM 33.2731 -113.0478 88° East 355 409 14,900 -400 Descending Albuquerque Center
Wed 07:50:17 PM 33.2761 -112.9361 87° East 350 403 14,200 -50 Descending Albuquerque Center
Wed 07:51:17 PM 33.2814 -112.8247 83° East 345 397 14,800 350 Climbing Albuquerque Center
Wed 07:52:17 PM 33.2925 -112.7164 95° East 340 391 14,900 50 Climbing Albuquerque Center
Wed 07:53:17 PM 33.2847 -112.6089 87° East 330 380 14,900 -850 Level Albuquerque Center
Wed 07:54:17 PM 33.2892 -112.5100 86° East 330 380 13,200 -1,529 Descending Albuquerque Center
Wed 07:55:54 PM 33.3000 -112.3333 90° East 307 353 10,900 -1,338 Descending Phoenix TRACON
Wed 07:56:54 PM 33.3000 -112.2333 90° East 299 344 9,700 -950 Descending Phoenix TRACON
Wed 07:57:54 PM 33.3000 -112.1333 73° East 280 322 9,000 -526 Descending Phoenix TRACON
Wed 07:58:48 PM 33.3167 -112.0667 77° East 248 285 8,700 -887 Descending Phoenix TRACON
Wed 07:59:49 PM 33.3333 -111.9833 77° East 251 289 7,300 -1,636 Descending Phoenix TRACON
Wed 08:00:49 PM 33.3500 -111.9000 51° Northeast 248 285 5,400 -1,619 Descending Phoenix TRACON
Wed 08:01:55 PM 33.3833 -111.8500 51° Northeast 219 252 3,900 -1,364 Descending Phoenix TRACON

Login

Don't have an account? Register now (free) for customized features, flight alerts, and more!